sensor_id;sensor_type;location;lat;lon;timestamp;temperature;humidity
65478;SHT31;53678;39.642;22.430;2023-03-23T00:01:20;10.98;88.69
65478;SHT31;53678;39.642;22.430;2023-03-23T00:03:50;10.91;88.22
65478;SHT31;53678;39.642;22.430;2023-03-23T00:06:18;10.96;88.72
65478;SHT31;53678;39.642;22.430;2023-03-23T00:08:48;10.91;88.60
65478;SHT31;53678;39.642;22.430;2023-03-23T00:11:18;11.05;88.72
65478;SHT31;53678;39.642;22.430;2023-03-23T00:13:46;10.98;88.36
65478;SHT31;53678;39.642;22.430;2023-03-23T00:16:13;11.03;88.80
65478;SHT31;53678;39.642;22.430;2023-03-23T00:18:50;11.05;88.60
65478;SHT31;53678;39.642;22.430;2023-03-23T00:21:19;11.10;88.37
65478;SHT31;53678;39.642;22.430;2023-03-23T00:23:49;11.16;88.44
65478;SHT31;53678;39.642;22.430;2023-03-23T00:26:18;11.29;87.73
65478;SHT31;53678;39.642;22.430;2023-03-23T00:28:45;11.15;87.21
65478;SHT31;53678;39.642;22.430;2023-03-23T00:31:12;10.99;87.56
65478;SHT31;53678;39.642;22.430;2023-03-23T00:33:39;10.86;88.25
65478;SHT31;53678;39.642;22.430;2023-03-23T00:36:12;10.76;89.25
65478;SHT31;53678;39.642;22.430;2023-03-23T00:38:42;10.82;89.85
65478;SHT31;53678;39.642;22.430;2023-03-23T00:41:09;10.82;89.77
65478;SHT31;53678;39.642;22.430;2023-03-23T00:43:37;10.86;89.52
65478;SHT31;53678;39.642;22.430;2023-03-23T00:46:04;10.85;89.43
65478;SHT31;53678;39.642;22.430;2023-03-23T00:48:36;10.92;89.43
65478;SHT31;53678;39.642;22.430;2023-03-23T00:51:06;10.99;88.68
65478;SHT31;53678;39.642;22.430;2023-03-23T00:53:35;11.00;88.15
65478;SHT31;53678;39.642;22.430;2023-03-23T00:56:01;11.05;88.09
65478;SHT31;53678;39.642;22.430;2023-03-23T00:58:27;11.08;87.45
65478;SHT31;53678;39.642;22.430;2023-03-23T01:00:53;11.10;87.33
65478;SHT31;53678;39.642;22.430;2023-03-23T01:03:19;11.10;87.21
65478;SHT31;53678;39.642;22.430;2023-03-23T01:05:45;11.05;86.87
65478;SHT31;53678;39.642;22.430;2023-03-23T01:08:17;11.06;87.31
65478;SHT31;53678;39.642;22.430;2023-03-23T01:10:44;11.05;86.99
65478;SHT31;53678;39.642;22.430;2023-03-23T01:13:11;11.02;86.96
65478;SHT31;53678;39.642;22.430;2023-03-23T01:15:37;11.06;86.86
65478;SHT31;53678;39.642;22.430;2023-03-23T01:18:03;10.98;86.79
65478;SHT31;53678;39.642;22.430;2023-03-23T01:20:29;10.93;87.13
65478;SHT31;53678;39.642;22.430;2023-03-23T01:22:59;10.95;87.05
65478;SHT31;53678;39.642;22.430;2023-03-23T01:25:29;10.93;86.69
65478;SHT31;53678;39.642;22.430;2023-03-23T01:27:56;10.79;87.68
65478;SHT31;53678;39.642;22.430;2023-03-23T01:30:22;10.79;88.32
65478;SHT31;53678;39.642;22.430;2023-03-23T01:32:48;10.64;87.53
65478;SHT31;53678;39.642;22.430;2023-03-23T01:35:14;10.61;88.04
65478;SHT31;53678;39.642;22.430;2023-03-23T01:37:40;10.36;88.03
65478;SHT31;53678;39.642;22.430;2023-03-23T01:40:06;10.48;88.89
65478;SHT31;53678;39.642;22.430;2023-03-23T01:42:35;10.61;88.34
65478;SHT31;53678;39.642;22.430;2023-03-23T01:48:03;10.57;87.71
65478;SHT31;53678;39.642;22.430;2023-03-23T01:50:35;10.47;88.25
65478;SHT31;53678;39.642;22.430;2023-03-23T01:53:04;10.44;88.64
65478;SHT31;53678;39.642;22.430;2023-03-23T01:55:35;10.45;88.25
65478;SHT31;53678;39.642;22.430;2023-03-23T01:58:02;10.33;88.25
65478;SHT31;53678;39.642;22.430;2023-03-23T02:00:29;10.36;88.18
65478;SHT31;53678;39.642;22.430;2023-03-23T02:02:56;10.42;87.76
65478;SHT31;53678;39.642;22.430;2023-03-23T02:05:40;10.41;87.40
65478;SHT31;53678;39.642;22.430;2023-03-23T02:08:14;10.48;87.85
65478;SHT31;53678;39.642;22.430;2023-03-23T02:10:40;10.57;88.34
65478;SHT31;53678;39.642;22.430;2023-03-23T02:13:09;10.65;88.06
65478;SHT31;53678;39.642;22.430;2023-03-23T02:27:08;10.30;88.59
65478;SHT31;53678;39.642;22.430;2023-03-23T02:32:43;10.34;88.21
65478;SHT31;53678;39.642;22.430;2023-03-23T02:35:20;10.24;88.55
65478;SHT31;53678;39.642;22.430;2023-03-23T02:38:13;10.29;88.21
65478;SHT31;53678;39.642;22.430;2023-03-23T02:40:44;10.18;87.64
65478;SHT31;53678;39.642;22.430;2023-03-23T02:43:17;10.11;87.74
65478;SHT31;53678;39.642;22.430;2023-03-23T02:45:46;9.99;88.15
65478;SHT31;53678;39.642;22.430;2023-03-23T02:48:15;9.94;89.12
65478;SHT31;53678;39.642;22.430;2023-03-23T02:50:45;9.94;89.67
65478;SHT31;53678;39.642;22.430;2023-03-23T02:53:16;9.93;91.08
65478;SHT31;53678;39.642;22.430;2023-03-23T02:55:44;9.97;91.65
65478;SHT31;53678;39.642;22.430;2023-03-23T02:58:15;10.13;91.38
65478;SHT31;53678;39.642;22.430;2023-03-23T03:00:43;10.00;91.30
65478;SHT31;53678;39.642;22.430;2023-03-23T03:03:13;9.94;91.38
65478;SHT31;53678;39.642;22.430;2023-03-23T03:08:52;9.73;91.95
65478;SHT31;53678;39.642;22.430;2023-03-23T03:11:21;9.65;91.65
65478;SHT31;53678;39.642;22.430;2023-03-23T03:16:42;9.46;92.32
65478;SHT31;53678;39.642;22.430;2023-03-23T03:19:26;9.58;91.99
65478;SHT31;53678;39.642;22.430;2023-03-23T03:21:54;9.56;91.53
65478;SHT31;53678;39.642;22.430;2023-03-23T03:24:31;9.63;91.67
65478;SHT31;53678;39.642;22.430;2023-03-23T03:26:58;9.63;91.31
65478;SHT31;53678;39.642;22.430;2023-03-23T03:29:35;9.54;91.60
65478;SHT31;53678;39.642;22.430;2023-03-23T03:32:05;9.49;91.51
65478;SHT31;53678;39.642;22.430;2023-03-23T03:34:33;9.62;91.86
65478;SHT31;53678;39.642;22.430;2023-03-23T03:36:59;9.75;91.63
65478;SHT31;53678;39.642;22.430;2023-03-23T03:39:27;9.90;90.76
65478;SHT31;53678;39.642;22.430;2023-03-23T03:41:53;10.02;90.79
65478;SHT31;53678;39.642;22.430;2023-03-23T03:44:20;10.13;90.35
65478;SHT31;53678;39.642;22.430;2023-03-23T03:46:46;10.23;89.83
65478;SHT31;53678;39.642;22.430;2023-03-23T03:49:12;10.24;89.46
65478;SHT31;53678;39.642;22.430;2023-03-23T03:51:40;10.36;89.66
65478;SHT31;53678;39.642;22.430;2023-03-23T03:54:10;10.34;89.26
65478;SHT31;53678;39.642;22.430;2023-03-23T03:56:37;10.45;89.24
65478;SHT31;53678;39.642;22.430;2023-03-23T03:59:37;10.45;88.67
65478;SHT31;53678;39.642;22.430;2023-03-23T04:02:23;10.42;88.57
65478;SHT31;53678;39.642;22.430;2023-03-23T04:04:51;10.40;88.80
65478;SHT31;53678;39.642;22.430;2023-03-23T04:07:18;10.44;89.14
65478;SHT31;53678;39.642;22.430;2023-03-23T04:09:44;10.50;89.04
65478;SHT31;53678;39.642;22.430;2023-03-23T04:12:16;10.52;88.80
65478;SHT31;53678;39.642;22.430;2023-03-23T04:15:08;10.58;88.42
65478;SHT31;53678;39.642;22.430;2023-03-23T04:17:35;10.58;88.43
65478;SHT31;53678;39.642;22.430;2023-03-23T04:20:02;10.57;88.40
65478;SHT31;53678;39.642;22.430;2023-03-23T04:22:34;10.47;88.52
65478;SHT31;53678;39.642;22.430;2023-03-23T04:25:01;10.23;89.19
65478;SHT31;53678;39.642;22.430;2023-03-23T04:27:32;10.18;88.77
65478;SHT31;53678;39.642;22.430;2023-03-23T04:30:01;10.16;89.37
65478;SHT31;53678;39.642;22.430;2023-03-23T04:32:39;10.13;89.30
65478;SHT31;53678;39.642;22.430;2023-03-23T04:35:11;10.10;89.28
65478;SHT31;53678;39.642;22.430;2023-03-23T04:37:41;10.14;89.57
65478;SHT31;53678;39.642;22.430;2023-03-23T04:40:11;10.04;89.03
65478;SHT31;53678;39.642;22.430;2023-03-23T04:42:43;10.03;89.25
65478;SHT31;53678;39.642;22.430;2023-03-23T04:45:28;10.10;88.98
65478;SHT31;53678;39.642;22.430;2023-03-23T04:47:55;10.13;88.49
65478;SHT31;53678;39.642;22.430;2023-03-23T04:50:32;10.60;88.21
65478;SHT31;53678;39.642;22.430;2023-03-23T04:53:05;11.24;86.64
65478;SHT31;53678;39.642;22.430;2023-03-23T04:55:33;11.73;82.67
65478;SHT31;53678;39.642;22.430;2023-03-23T04:58:04;12.28;81.42
65478;SHT31;53678;39.642;22.430;2023-03-23T05:00:43;12.80;78.86
65478;SHT31;53678;39.642;22.430;2023-03-23T05:03:19;13.51;77.21
65478;SHT31;53678;39.642;22.430;2023-03-23T05:05:46;13.90;75.49
65478;SHT31;53678;39.642;22.430;2023-03-23T05:08:19;14.38;75.21
65478;SHT31;53678;39.642;22.430;2023-03-23T05:10:57;14.65;71.92
65478;SHT31;53678;39.642;22.430;2023-03-23T05:13:28;13.73;74.06
65478;SHT31;53678;39.642;22.430;2023-03-23T05:15:57;13.11;75.89
65478;SHT31;53678;39.642;22.430;2023-03-23T05:18:23;13.24;77.81
65478;SHT31;53678;39.642;22.430;2023-03-23T05:20:49;14.25;74.11
65478;SHT31;53678;39.642;22.430;2023-03-23T05:23:19;15.03;70.78
65478;SHT31;53678;39.642;22.430;2023-03-23T05:25:56;15.87;70.15
65478;SHT31;53678;39.642;22.430;2023-03-23T05:28:27;16.40;66.15
65478;SHT31;53678;39.642;22.430;2023-03-23T05:31:04;16.70;64.29
65478;SHT31;53678;39.642;22.430;2023-03-23T05:33:32;17.11;64.92
65478;SHT31;53678;39.642;22.430;2023-03-23T05:35:57;17.10;64.69
65478;SHT31;53678;39.642;22.430;2023-03-23T05:38:28;17.52;64.81
65478;SHT31;53678;39.642;22.430;2023-03-23T05:40:58;18.01;62.62
65478;SHT31;53678;39.642;22.430;2023-03-23T05:43:32;17.89;63.31
65478;SHT31;53678;39.642;22.430;2023-03-23T05:46:08;18.04;62.92
65478;SHT31;53678;39.642;22.430;2023-03-23T05:48:36;18.41;61.65
65478;SHT31;53678;39.642;22.430;2023-03-23T05:51:04;18.37;61.78
65478;SHT31;53678;39.642;22.430;2023-03-23T05:53:31;18.14;62.21
65478;SHT31;53678;39.642;22.430;2023-03-23T05:55:59;17.39;63.49
65478;SHT31;53678;39.642;22.430;2023-03-23T05:58:45;18.39;63.44
65478;SHT31;53678;39.642;22.430;2023-03-23T06:01:10;18.60;60.87
65478;SHT31;53678;39.642;22.430;2023-03-23T06:03:40;19.02;59.71
65478;SHT31;53678;39.642;22.430;2023-03-23T06:06:13;18.51;59.99
65478;SHT31;53678;39.642;22.430;2023-03-23T06:08:50;18.48;61.61
65478;SHT31;53678;39.642;22.430;2023-03-23T06:11:22;18.39;60.82
65478;SHT31;53678;39.642;22.430;2023-03-23T06:14:06;18.38;60.70
65478;SHT31;53678;39.642;22.430;2023-03-23T06:16:33;18.69;60.02
65478;SHT31;53678;39.642;22.430;2023-03-23T06:19:02;18.49;60.60
65478;SHT31;53678;39.642;22.430;2023-03-23T06:21:34;17.18;63.49
65478;SHT31;53678;39.642;22.430;2023-03-23T06:24:08;17.91;61.47
65478;SHT31;53678;39.642;22.430;2023-03-23T06:26:41;18.38;61.20
65478;SHT31;53678;39.642;22.430;2023-03-23T06:29:11;17.98;63.02
65478;SHT31;53678;39.642;22.430;2023-03-23T06:31:52;17.94;62.69
65478;SHT31;53678;39.642;22.430;2023-03-23T06:34:20;17.86;63.30
65478;SHT31;53678;39.642;22.430;2023-03-23T06:37:06;17.14;65.44
65478;SHT31;53678;39.642;22.430;2023-03-23T06:40:05;16.44;68.60
65478;SHT31;53678;39.642;22.430;2023-03-23T06:42:42;16.59;67.62
65478;SHT31;53678;39.642;22.430;2023-03-23T06:45:46;16.04;69.24
65478;SHT31;53678;39.642;22.430;2023-03-23T06:48:38;15.68;70.13
65478;SHT31;53678;39.642;22.430;2023-03-23T06:51:05;15.23;72.23
65478;SHT31;53678;39.642;22.430;2023-03-23T06:53:32;15.89;70.11
65478;SHT31;53678;39.642;22.430;2023-03-23T06:55:59;16.61;68.42
65478;SHT31;53678;39.642;22.430;2023-03-23T06:58:26;16.19;68.89
65478;SHT31;53678;39.642;22.430;2023-03-23T07:00:56;16.77;68.50
65478;SHT31;53678;39.642;22.430;2023-03-23T07:03:28;16.91;68.32
65478;SHT31;53678;39.642;22.430;2023-03-23T07:05:54;16.37;69.03
65478;SHT31;53678;39.642;22.430;2023-03-23T07:08:23;16.53;68.53
65478;SHT31;53678;39.642;22.430;2023-03-23T07:10:54;17.15;67.53
65478;SHT31;53678;39.642;22.430;2023-03-23T07:13:26;17.57;65.82
65478;SHT31;53678;39.642;22.430;2023-03-23T07:15:58;17.14;66.99
65478;SHT31;53678;39.642;22.430;2023-03-23T07:18:25;17.43;66.68
65478;SHT31;53678;39.642;22.430;2023-03-23T07:20:53;17.33;66.44
65478;SHT31;53678;39.642;22.430;2023-03-23T07:23:22;17.39;66.46
65478;SHT31;53678;39.642;22.430;2023-03-23T07:25:57;17.98;65.11
65478;SHT31;53678;39.642;22.430;2023-03-23T07:28:30;18.48;63.88
65478;SHT31;53678;39.642;22.430;2023-03-23T07:31:01;18.75;63.26
65478;SHT31;53678;39.642;22.430;2023-03-23T07:33:27;19.06;62.12
65478;SHT31;53678;39.642;22.430;2023-03-23T07:35:58;18.77;62.10
65478;SHT31;53678;39.642;22.430;2023-03-23T07:38:24;17.65;66.94
65478;SHT31;53678;39.642;22.430;2023-03-23T07:40:53;17.89;65.06
65478;SHT31;53678;39.642;22.430;2023-03-23T07:43:20;17.96;64.97
65478;SHT31;53678;39.642;22.430;2023-03-23T07:46:01;17.36;66.33
65478;SHT31;53678;39.642;22.430;2023-03-23T07:48:43;17.01;67.19
65478;SHT31;53678;39.642;22.430;2023-03-23T07:51:09;17.21;66.40
65478;SHT31;53678;39.642;22.430;2023-03-23T07:53:35;17.46;66.18
65478;SHT31;53678;39.642;22.430;2023-03-23T07:56:19;18.11;63.94
65478;SHT31;53678;39.642;22.430;2023-03-23T07:58:59;18.25;63.72
65478;SHT31;53678;39.642;22.430;2023-03-23T08:01:26;18.07;64.11
65478;SHT31;53678;39.642;22.430;2023-03-23T08:04:28;17.54;65.54
65478;SHT31;53678;39.642;22.430;2023-03-23T08:07:13;16.25;68.21
65478;SHT31;53678;39.642;22.430;2023-03-23T08:09:49;17.14;66.62
65478;SHT31;53678;39.642;22.430;2023-03-23T08:12:31;16.57;67.87
65478;SHT31;53678;39.642;22.430;2023-03-23T08:15:16;16.27;68.44
65478;SHT31;53678;39.642;22.430;2023-03-23T08:18:20;16.74;67.35
65478;SHT31;53678;39.642;22.430;2023-03-23T08:21:06;17.35;65.50
65478;SHT31;53678;39.642;22.430;2023-03-23T08:23:49;17.57;65.34
65478;SHT31;53678;39.642;22.430;2023-03-23T08:26:35;18.01;63.74
65478;SHT31;53678;39.642;22.430;2023-03-23T08:29:21;18.21;63.18
65478;SHT31;53678;39.642;22.430;2023-03-23T08:32:05;17.66;64.10
65478;SHT31;53678;39.642;22.430;2023-03-23T08:34:43;17.60;64.66
65478;SHT31;53678;39.642;22.430;2023-03-23T08:37:26;17.60;65.12
65478;SHT31;53678;39.642;22.430;2023-03-23T08:40:14;17.69;65.06
65478;SHT31;53678;39.642;22.430;2023-03-23T08:42:47;17.28;65.99
65478;SHT31;53678;39.642;22.430;2023-03-23T08:45:25;17.79;65.17
65478;SHT31;53678;39.642;22.430;2023-03-23T08:48:10;18.07;63.97
65478;SHT31;53678;39.642;22.430;2023-03-23T08:51:07;18.32;63.36
65478;SHT31;53678;39.642;22.430;2023-03-23T08:53:34;18.63;62.91
65478;SHT31;53678;39.642;22.430;2023-03-23T08:56:35;18.60;63.20
65478;SHT31;53678;39.642;22.430;2023-03-23T08:59:07;18.45;63.46
65478;SHT31;53678;39.642;22.430;2023-03-23T09:01:53;18.14;63.96
65478;SHT31;53678;39.642;22.430;2023-03-23T09:04:22;18.04;64.91
65478;SHT31;53678;39.642;22.430;2023-03-23T09:07:06;17.93;64.83
65478;SHT31;53678;39.642;22.430;2023-03-23T09:09:32;17.65;64.68
65478;SHT31;53678;39.642;22.430;2023-03-23T09:11:59;17.86;64.76
65478;SHT31;53678;39.642;22.430;2023-03-23T09:14:26;17.66;65.42
65478;SHT31;53678;39.642;22.430;2023-03-23T09:16:52;17.65;65.70
65478;SHT31;53678;39.642;22.430;2023-03-23T09:19:18;17.73;65.66
65478;SHT31;53678;39.642;22.430;2023-03-23T09:21:44;17.77;65.01
65478;SHT31;53678;39.642;22.430;2023-03-23T09:24:11;17.96;65.72
65478;SHT31;53678;39.642;22.430;2023-03-23T09:26:36;17.86;65.28
65478;SHT31;53678;39.642;22.430;2023-03-23T09:29:02;18.20;64.60
65478;SHT31;53678;39.642;22.430;2023-03-23T09:31:29;18.48;64.05
65478;SHT31;53678;39.642;22.430;2023-03-23T09:33:57;18.01;64.83
65478;SHT31;53678;39.642;22.430;2023-03-23T09:36:25;17.87;65.14
65478;SHT31;53678;39.642;22.430;2023-03-23T09:38:58;17.97;65.28
65478;SHT31;53678;39.642;22.430;2023-03-23T09:42:02;17.93;63.33
65478;SHT31;53678;39.642;22.430;2023-03-23T09:48:02;18.39;61.12
65478;SHT31;53678;39.642;22.430;2023-03-23T09:50:32;18.56;60.67
65478;SHT31;53678;39.642;22.430;2023-03-23T09:53:42;18.53;61.44
65478;SHT31;53678;39.642;22.430;2023-03-23T09:56:14;18.95;59.76
65478;SHT31;53678;39.642;22.430;2023-03-23T09:58:50;18.95;59.80
65478;SHT31;53678;39.642;22.430;2023-03-23T10:01:28;18.96;60.11
65478;SHT31;53678;39.642;22.430;2023-03-23T10:06:47;18.44;61.37
65478;SHT31;53678;39.642;22.430;2023-03-23T10:09:16;18.05;62.60
65478;SHT31;53678;39.642;22.430;2023-03-23T10:12:10;17.73;63.75
65478;SHT31;53678;39.642;22.430;2023-03-23T10:15:43;18.12;63.25
65478;SHT31;53678;39.642;22.430;2023-03-23T10:20:47;18.89;61.39
65478;SHT31;53678;39.642;22.430;2023-03-23T10:26:45;18.92;60.41
65478;SHT31;53678;39.642;22.430;2023-03-23T10:29:39;18.77;61.79
65478;SHT31;53678;39.642;22.430;2023-03-23T10:32:34;19.03;61.19
65478;SHT31;53678;39.642;22.430;2023-03-23T10:35:05;19.18;59.81
65478;SHT31;53678;39.642;22.430;2023-03-23T10:37:37;18.66;60.39
65478;SHT31;53678;39.642;22.430;2023-03-23T10:40:06;17.86;62.60
65478;SHT31;53678;39.642;22.430;2023-03-23T10:42:36;17.63;63.65
65478;SHT31;53678;39.642;22.430;2023-03-23T10:45:17;17.83;63.16
65478;SHT31;53678;39.642;22.430;2023-03-23T10:47:51;18.24;61.68
65478;SHT31;53678;39.642;22.430;2023-03-23T10:50:23;18.69;60.83
65478;SHT31;53678;39.642;22.430;2023-03-23T10:52:51;18.72;59.99
65478;SHT31;53678;39.642;22.430;2023-03-23T10:55:21;18.58;60.45
65478;SHT31;53678;39.642;22.430;2023-03-23T10:58:28;18.47;61.00
65478;SHT31;53678;39.642;22.430;2023-03-23T11:00:58;18.63;60.73
65478;SHT31;53678;39.642;22.430;2023-03-23T11:06:27;19.31;58.50
65478;SHT31;53678;39.642;22.430;2023-03-23T11:09:01;19.24;56.50
65478;SHT31;53678;39.642;22.430;2023-03-23T11:11:38;18.77;57.63
65478;SHT31;53678;39.642;22.430;2023-03-23T11:14:19;18.76;57.74
65478;SHT31;53678;39.642;22.430;2023-03-23T11:16:51;18.88;57.88
65478;SHT31;53678;39.642;22.430;2023-03-23T11:19:24;19.02;56.64
65478;SHT31;53678;39.642;22.430;2023-03-23T11:24:45;19.04;58.55
65478;SHT31;53678;39.642;22.430;2023-03-23T11:27:13;19.02;57.88
65478;SHT31;53678;39.642;22.430;2023-03-23T11:30:00;19.02;57.42
65478;SHT31;53678;39.642;22.430;2023-03-23T11:32:29;18.51;57.55
65478;SHT31;53678;39.642;22.430;2023-03-23T11:34:58;19.16;56.41
65478;SHT31;53678;39.642;22.430;2023-03-23T11:37:43;19.58;55.93
65478;SHT31;53678;39.642;22.430;2023-03-23T11:40:20;19.88;55.00
65478;SHT31;53678;39.642;22.430;2023-03-23T11:45:32;19.14;58.03
65478;SHT31;53678;39.642;22.430;2023-03-23T11:50:47;19.14;57.14
65478;SHT31;53678;39.642;22.430;2023-03-23T11:56:24;19.03;55.25
65478;SHT31;53678;39.642;22.430;2023-03-23T11:58:53;18.56;57.34
65478;SHT31;53678;39.642;22.430;2023-03-23T12:23:40;20.08;54.69
65478;SHT31;53678;39.642;22.430;2023-03-23T12:26:48;20.29;54.27
65478;SHT31;53678;39.642;22.430;2023-03-23T12:29:12;20.30;53.59
65478;SHT31;53678;39.642;22.430;2023-03-23T12:42:37;19.72;55.29
65478;SHT31;53678;39.642;22.430;2023-03-23T12:47:47;19.92;54.55
65478;SHT31;53678;39.642;22.430;2023-03-23T12:58:33;19.59;56.06
65478;SHT31;53678;39.642;22.430;2023-03-23T13:03:44;19.89;55.83
65478;SHT31;53678;39.642;22.430;2023-03-23T13:06:22;19.55;54.38
65478;SHT31;53678;39.642;22.430;2023-03-23T13:08:55;19.67;55.48
65478;SHT31;53678;39.642;22.430;2023-03-23T13:11:32;19.59;55.12
65478;SHT31;53678;39.642;22.430;2023-03-23T13:17:31;19.41;56.92
65478;SHT31;53678;39.642;22.430;2023-03-23T13:28:25;19.62;55.93
65478;SHT31;53678;39.642;22.430;2023-03-23T13:30:56;19.62;55.55
65478;SHT31;53678;39.642;22.430;2023-03-23T13:33:22;19.54;55.81
65478;SHT31;53678;39.642;22.430;2023-03-23T13:35:50;19.72;55.58
65478;SHT31;53678;39.642;22.430;2023-03-23T13:38:27;19.35;57.14
65478;SHT31;53678;39.642;22.430;2023-03-23T13:40:56;19.57;56.72
65478;SHT31;53678;39.642;22.430;2023-03-23T13:43:34;19.61;55.91
65478;SHT31;53678;39.642;22.430;2023-03-23T13:49:02;19.50;56.43
65478;SHT31;53678;39.642;22.430;2023-03-23T13:57:02;19.04;57.50
65478;SHT31;53678;39.642;22.430;2023-03-23T13:59:31;19.20;57.49
65478;SHT31;53678;39.642;22.430;2023-03-23T14:02:38;18.89;57.36
65478;SHT31;53678;39.642;22.430;2023-03-23T14:07:58;18.77;58.38
65478;SHT31;53678;39.642;22.430;2023-03-23T14:13:18;18.53;58.31
65478;SHT31;53678;39.642;22.430;2023-03-23T14:16:02;18.68;57.90
65478;SHT31;53678;39.642;22.430;2023-03-23T14:18:36;18.58;58.76
65478;SHT31;53678;39.642;22.430;2023-03-23T14:21:03;18.53;59.22
65478;SHT31;53678;39.642;22.430;2023-03-23T14:23:33;18.44;59.23
65478;SHT31;53678;39.642;22.430;2023-03-23T14:26:02;18.45;59.62
65478;SHT31;53678;39.642;22.430;2023-03-23T14:28:44;18.34;59.05
65478;SHT31;53678;39.642;22.430;2023-03-23T14:31:29;18.35;59.67
65478;SHT31;53678;39.642;22.430;2023-03-23T14:33:56;18.34;60.06
65478;SHT31;53678;39.642;22.430;2023-03-23T14:36:29;18.31;59.50
65478;SHT31;53678;39.642;22.430;2023-03-23T14:39:12;18.18;59.32
65478;SHT31;53678;39.642;22.430;2023-03-23T14:41:40;18.30;60.53
65478;SHT31;53678;39.642;22.430;2023-03-23T14:44:08;18.22;59.26
65478;SHT31;53678;39.642;22.430;2023-03-23T14:46:35;18.20;60.10
65478;SHT31;53678;39.642;22.430;2023-03-23T14:49:03;18.24;59.78
65478;SHT31;53678;39.642;22.430;2023-03-23T14:51:30;18.11;59.38
65478;SHT31;53678;39.642;22.430;2023-03-23T14:53:58;17.98;60.26
65478;SHT31;53678;39.642;22.430;2023-03-23T14:56:33;18.05;60.97
65478;SHT31;53678;39.642;22.430;2023-03-23T14:59:04;18.08;60.00
65478;SHT31;53678;39.642;22.430;2023-03-23T15:01:32;18.05;60.97
65478;SHT31;53678;39.642;22.430;2023-03-23T15:04:09;17.81;61.18
65478;SHT31;53678;39.642;22.430;2023-03-23T15:06:38;17.91;61.90
65478;SHT31;53678;39.642;22.430;2023-03-23T15:09:09;17.90;62.37
65478;SHT31;53678;39.642;22.430;2023-03-23T15:11:38;17.73;63.14
65478;SHT31;53678;39.642;22.430;2023-03-23T15:14:20;17.66;62.80
65478;SHT31;53678;39.642;22.430;2023-03-23T15:16:50;17.49;63.03
65478;SHT31;53678;39.642;22.430;2023-03-23T15:19:39;17.32;63.62
65478;SHT31;53678;39.642;22.430;2023-03-23T15:25:09;17.19;64.46
65478;SHT31;53678;39.642;22.430;2023-03-23T15:27:43;17.02;64.35
65478;SHT31;53678;39.642;22.430;2023-03-23T15:30:27;17.02;64.91
65478;SHT31;53678;39.642;22.430;2023-03-23T15:33:12;16.95;64.98
65478;SHT31;53678;39.642;22.430;2023-03-23T15:35:41;16.94;64.84
65478;SHT31;53678;39.642;22.430;2023-03-23T15:38:34;16.91;65.35
65478;SHT31;53678;39.642;22.430;2023-03-23T15:41:04;16.87;65.58
65478;SHT31;53678;39.642;22.430;2023-03-23T15:43:35;16.81;65.65
65478;SHT31;53678;39.642;22.430;2023-03-23T15:48:33;16.78;65.67
65478;SHT31;53678;39.642;22.430;2023-03-23T15:51:02;16.71;66.06
65478;SHT31;53678;39.642;22.430;2023-03-23T15:53:34;16.63;66.48
65478;SHT31;53678;39.642;22.430;2023-03-23T15:56:02;16.67;66.55
65478;SHT31;53678;39.642;22.430;2023-03-23T15:58:28;16.70;66.98
65478;SHT31;53678;39.642;22.430;2023-03-23T16:00:55;16.52;67.56
65478;SHT31;53678;39.642;22.430;2023-03-23T16:03:30;16.42;67.89
65478;SHT31;53678;39.642;22.430;2023-03-23T16:06:00;16.30;68.71
65478;SHT31;53678;39.642;22.430;2023-03-23T16:08:27;16.23;69.42
65478;SHT31;53678;39.642;22.430;2023-03-23T16:10:54;16.13;70.07
65478;SHT31;53678;39.642;22.430;2023-03-23T16:13:20;15.99;70.62
65478;SHT31;53678;39.642;22.430;2023-03-23T16:15:47;16.02;70.14
65478;SHT31;53678;39.642;22.430;2023-03-23T16:18:18;16.05;69.78
65478;SHT31;53678;39.642;22.430;2023-03-23T16:20:44;16.02;69.66
65478;SHT31;53678;39.642;22.430;2023-03-23T16:23:09;15.98;69.66
65478;SHT31;53678;39.642;22.430;2023-03-23T16:25:35;15.98;69.78
65478;SHT31;53678;39.642;22.430;2023-03-23T16:28:01;15.79;70.17
65478;SHT31;53678;39.642;22.430;2023-03-23T16:30:28;15.74;70.24
65478;SHT31;53678;39.642;22.430;2023-03-23T16:32:54;15.54;70.85
65478;SHT31;53678;39.642;22.430;2023-03-23T16:35:21;15.53;71.10
65478;SHT31;53678;39.642;22.430;2023-03-23T16:37:49;15.46;71.33
65478;SHT31;53678;39.642;22.430;2023-03-23T16:40:17;15.36;71.89
65478;SHT31;53678;39.642;22.430;2023-03-23T16:42:43;15.30;71.78
65478;SHT31;53678;39.642;22.430;2023-03-23T16:45:10;15.19;72.25
65478;SHT31;53678;39.642;22.430;2023-03-23T16:47:37;15.04;72.86
65478;SHT31;53678;39.642;22.430;2023-03-23T16:50:05;14.88;73.42
65478;SHT31;53678;39.642;22.430;2023-03-23T16:52:33;14.78;73.88
65478;SHT31;53678;39.642;22.430;2023-03-23T16:54:59;14.79;74.11
65478;SHT31;53678;39.642;22.430;2023-03-23T16:57:25;14.67;74.54
65478;SHT31;53678;39.642;22.430;2023-03-23T16:59:51;14.79;74.28
65478;SHT31;53678;39.642;22.430;2023-03-23T17:02:17;14.58;74.91
65478;SHT31;53678;39.642;22.430;2023-03-23T17:04:44;14.51;75.31
65478;SHT31;53678;39.642;22.430;2023-03-23T17:07:11;14.44;75.57
65478;SHT31;53678;39.642;22.430;2023-03-23T17:09:38;14.45;75.79
65478;SHT31;53678;39.642;22.430;2023-03-23T17:12:04;14.45;75.66
65478;SHT31;53678;39.642;22.430;2023-03-23T17:14:30;14.30;76.08
65478;SHT31;53678;39.642;22.430;2023-03-23T17:16:57;14.09;76.61
65478;SHT31;53678;39.642;22.430;2023-03-23T17:19:22;14.11;76.84
65478;SHT31;53678;39.642;22.430;2023-03-23T17:21:48;14.09;76.82
65478;SHT31;53678;39.642;22.430;2023-03-23T17:24:14;14.06;76.84
65478;SHT31;53678;39.642;22.430;2023-03-23T17:26:40;13.94;77.00
65478;SHT31;53678;39.642;22.430;2023-03-23T17:29:06;13.97;77.18
65478;SHT31;53678;39.642;22.430;2023-03-23T17:31:32;13.94;77.14
65478;SHT31;53678;39.642;22.430;2023-03-23T17:33:57;14.03;76.94
65478;SHT31;53678;39.642;22.430;2023-03-23T17:36:23;14.00;77.05
65478;SHT31;53678;39.642;22.430;2023-03-23T17:38:50;13.99;76.85
65478;SHT31;53678;39.642;22.430;2023-03-23T17:41:16;13.89;77.29
65478;SHT31;53678;39.642;22.430;2023-03-23T17:43:42;13.89;77.26
65478;SHT31;53678;39.642;22.430;2023-03-23T17:46:08;13.77;77.67
65478;SHT31;53678;39.642;22.430;2023-03-23T17:48:35;13.79;77.73
65478;SHT31;53678;39.642;22.430;2023-03-23T17:51:01;13.73;77.92
65478;SHT31;53678;39.642;22.430;2023-03-23T17:53:29;13.70;78.13
65478;SHT31;53678;39.642;22.430;2023-03-23T17:55:56;13.52;78.66
65478;SHT31;53678;39.642;22.430;2023-03-23T17:58:22;13.51;78.79